Time;durP1;ratioP1;P1;durP2;ratioP2;P2;SDS_P1;SDS_P2;PMS_P1;PMS_P2;Temp;Humidity;BMP_temperature;BMP_pressure;BME280_temperature;BME280_humidity;BME280_pressure;Samples;Min_cycle;Max_cycle;Signal;HPM_P1;HPM_P2
2024/02/26 00:03:22;;;;;;;4.25;2.10;;;16.30;99.90;;;;;;10514547;28;20060;-61
2024/02/26 00:08:24;;;;;;;5.37;2.80;;;16.20;99.90;;;;;;10519643;28;20075;-61
2024/02/26 00:13:27;;;;;;;3.87;2.00;;;16.20;99.90;;;;;;10509130;28;20493;-62
2024/02/26 00:18:29;;;;;;;5.25;2.35;;;16.30;99.90;;;;;;10511874;28;20137;-61
2024/02/26 00:23:31;;;;;;;3.03;1.77;;;16.30;99.90;;;;;;10514834;28;20052;-63
2024/02/26 00:28:35;;;;;;;4.75;1.80;;;16.40;99.90;;;;;;10512105;28;20075;-61
2024/02/26 00:33:37;;;;;;;4.97;2.30;;;16.20;99.90;;;;;;10518701;28;20170;-62
2024/02/26 00:38:40;;;;;;;2.83;1.80;;;16.20;99.90;;;;;;10514839;28;20875;-62
2024/02/26 00:43:43;;;;;;;4.28;2.13;;;16.30;99.90;;;;;;10522303;28;20415;-61
2024/02/26 00:48:45;;;;;;;3.70;2.00;;;16.30;99.90;;;;;;10519240;28;20471;-60
2024/02/26 00:53:47;;;;;;;4.40;2.27;;;16.30;99.90;;;;;;10521914;28;20051;-61
2024/02/26 00:58:51;;;;;;;3.38;1.63;;;16.10;99.90;;;;;;10517748;28;20048;-62
2024/02/26 01:03:53;;;;;;;1.85;1.55;;;16.10;99.90;;;;;;10520735;28;20732;-60
2024/02/26 01:08:55;;;;;;;2.97;1.88;;;16.10;99.90;;;;;;10514692;28;20048;-63
2024/02/26 01:13:58;;;;;;;3.77;2.10;;;16.20;99.90;;;;;;10510126;28;20059;-60
2024/02/26 01:19:00;;;;;;;5.03;2.03;;;16.20;99.90;;;;;;10520251;28;20859;-63
2024/02/26 01:24:02;;;;;;;5.17;2.10;;;16.00;99.90;;;;;;10518709;28;20056;-61
2024/02/26 01:29:06;;;;;;;2.72;1.67;;;16.20;99.90;;;;;;10511664;28;20098;-60
2024/02/26 01:34:08;;;;;;;4.95;1.48;;;16.30;99.90;;;;;;10517803;28;20090;-60
2024/02/26 01:39:12;;;;;;;2.83;1.50;;;16.20;99.90;;;;;;10516728;28;21511;-61
2024/02/26 01:44:15;;;;;;;2.40;1.48;;;16.20;99.90;;;;;;10511597;28;20055;-61
2024/02/26 01:49:18;;;;;;;4.38;2.10;;;16.20;99.90;;;;;;10530196;28;20722;-61
2024/02/26 01:54:19;;;;;;;3.00;1.52;;;16.10;99.90;;;;;;10521684;28;20044;-62
2024/02/26 01:59:23;;;;;;;2.50;1.60;;;16.20;99.90;;;;;;10513856;28;20052;-61
2024/02/26 02:04:26;;;;;;;3.70;1.60;;;16.00;99.90;;;;;;10507709;28;20137;-61
2024/02/26 02:09:28;;;;;;;2.60;1.38;;;16.10;99.90;;;;;;10521431;28;21058;-61
2024/02/26 02:14:31;;;;;;;3.15;2.03;;;16.10;99.90;;;;;;10517097;28;20066;-60
2024/02/26 02:19:34;;;;;;;3.85;2.25;;;16.00;99.90;;;;;;10520485;28;20542;-61
2024/02/26 02:24:37;;;;;;;4.20;2.05;;;16.00;99.90;;;;;;10514048;28;20113;-61
2024/02/26 02:29:39;;;;;;;2.50;2.20;;;16.10;99.90;;;;;;10510639;28;20049;-61
2024/02/26 02:34:42;;;;;;;4.15;2.38;;;16.00;99.90;;;;;;10517977;28;20050;-61
2024/02/26 02:39:46;;;;;;;7.10;2.70;;;15.80;99.90;;;;;;10525874;28;20051;-60
2024/02/26 02:44:48;;;;;;;4.05;2.75;;;16.00;99.90;;;;;;10522202;28;20444;-60
2024/02/26 02:49:50;;;;;;;3.23;2.10;;;16.00;99.90;;;;;;10515257;28;20516;-60
2024/02/26 02:54:53;;;;;;;3.55;2.47;;;15.90;99.90;;;;;;10516435;28;20048;-61
2024/02/26 02:59:56;;;;;;;4.28;2.67;;;15.90;99.90;;;;;;10520820;28;20137;-61
2024/02/26 03:04:58;;;;;;;4.18;2.92;;;16.10;99.90;;;;;;10513672;28;20056;-61
2024/02/26 03:10:01;;;;;;;6.63;2.90;;;15.90;99.90;;;;;;10515161;28;20052;-60
2024/02/26 03:15:04;;;;;;;4.38;2.25;;;15.80;99.90;;;;;;10516673;28;21512;-60
2024/02/26 03:20:08;;;;;;;2.58;2.33;;;16.10;99.90;;;;;;10518933;28;20043;-60
2024/02/26 03:25:12;;;;;;;3.47;2.28;;;15.80;99.90;;;;;;10511473;28;20055;-60
2024/02/26 03:30:14;;;;;;;4.10;2.38;;;15.90;99.90;;;;;;10517060;28;20142;-61
2024/02/26 03:35:16;;;;;;;2.92;2.35;;;15.90;99.90;;;;;;10522969;28;20055;-61
2024/02/26 03:40:20;;;;;;;2.87;2.30;;;15.80;99.90;;;;;;10513139;28;20888;-61
2024/02/26 03:45:22;;;;;;;3.90;2.63;;;15.80;99.90;;;;;;10522560;28;20952;-61
2024/02/26 03:50:24;;;;;;;3.20;2.90;;;15.80;99.90;;;;;;10522657;28;20051;-62
2024/02/26 03:55:28;;;;;;;4.23;3.03;;;15.90;99.90;;;;;;10512840;28;20048;-62
2024/02/26 04:15:30;;;;;;;3.90;2.20;;;15.90;99.90;;;;;;10502318;27;21360;-61
2024/02/26 04:20:32;;;;;;;3.35;3.05;;;15.70;99.90;;;;;;10510802;28;20777;-60
2024/02/26 04:25:35;;;;;;;5.57;3.07;;;15.80;99.90;;;;;;10509386;28;20048;-61
2024/02/26 04:30:39;;;;;;;4.18;3.40;;;15.70;99.90;;;;;;10509882;28;20462;-61
2024/02/26 04:35:41;;;;;;;5.88;3.53;;;15.70;99.90;;;;;;10509314;28;20056;-60
2024/02/26 04:40:43;;;;;;;4.47;3.58;;;15.60;99.90;;;;;;10510407;28;20408;-60
2024/02/26 04:45:46;;;;;;;4.47;3.97;;;15.80;99.90;;;;;;10513101;28;20834;-62
2024/02/26 04:50:48;;;;;;;5.35;4.03;;;15.80;99.90;;;;;;10511685;28;20157;-62
2024/02/26 04:55:51;;;;;;;8.03;4.40;;;15.80;99.90;;;;;;10514857;28;20078;-62
2024/02/26 05:00:55;;;;;;;7.45;3.78;;;15.70;99.90;;;;;;10511590;28;20478;-61
2024/02/26 05:05:58;;;;;;;4.28;3.13;;;15.70;99.90;;;;;;10507479;28;20044;-60
2024/02/26 05:11:00;;;;;;;7.15;4.55;;;15.80;99.90;;;;;;10509707;28;20053;-61
2024/02/26 05:16:04;;;;;;;5.78;3.72;;;15.70;99.90;;;;;;10512367;28;21013;-62
2024/02/26 05:21:06;;;;;;;5.18;3.38;;;15.80;99.90;;;;;;10509838;28;20272;-61
2024/02/26 05:26:08;;;;;;;6.93;4.07;;;16.00;99.90;;;;;;10496888;28;20048;-61
2024/02/26 05:31:14;;;;;;;5.05;3.88;;;16.00;99.90;;;;;;10485280;28;20498;-61
2024/02/26 05:36:21;;;;;;;5.25;3.72;;;16.00;99.90;;;;;;10482731;28;20057;-61
2024/02/26 05:41:25;;;;;;;4.78;3.25;;;16.00;99.90;;;;;;10491583;28;20055;-60
2024/02/26 05:46:29;;;;;;;6.68;3.78;;;16.00;99.90;;;;;;10479548;28;20517;-63
2024/02/26 05:51:31;;;;;;;5.07;4.18;;;16.10;99.90;;;;;;10477247;28;20052;-61
2024/02/26 05:56:33;;;;;;;7.47;4.87;;;16.20;99.90;;;;;;10481742;28;20102;-61
2024/02/26 06:01:36;;;;;;;5.60;4.03;;;16.20;99.90;;;;;;10482358;28;20177;-63
2024/02/26 06:06:38;;;;;;;5.97;4.70;;;16.40;99.90;;;;;;10481981;28;20515;-61
2024/02/26 06:11:41;;;;;;;7.28;4.78;;;16.60;99.90;;;;;;10478575;28;20051;-62
2024/02/26 06:16:44;;;;;;;7.25;4.30;;;16.40;99.90;;;;;;10471726;28;20162;-60
2024/02/26 06:21:46;;;;;;;8.88;5.25;;;16.30;99.90;;;;;;10479930;28;20052;-62
2024/02/26 06:26:48;;;;;;;9.13;6.33;;;16.70;99.90;;;;;;10476151;28;20785;-62
2024/02/26 06:31:52;;;;;;;8.63;6.47;;;16.50;99.90;;;;;;10473453;28;20041;-61
2024/02/26 06:36:54;;;;;;;9.55;6.50;;;16.60;99.90;;;;;;10467308;28;20044;-61
2024/02/26 06:42:00;;;;;;;12.18;7.32;;;16.50;99.90;;;;;;10461058;28;20874;-61
2024/02/26 06:47:04;;;;;;;9.68;6.78;;;16.40;99.90;;;;;;10458740;28;20057;-61
2024/02/26 06:52:06;;;;;;;9.88;6.50;;;16.60;99.90;;;;;;10468419;28;20906;-61
2024/02/26 06:57:08;;;;;;;10.30;7.22;;;16.60;99.90;;;;;;10468537;28;20052;-61
2024/02/26 07:02:11;;;;;;;13.13;6.73;;;16.40;99.90;;;;;;10461799;28;20075;-59
2024/02/26 07:07:14;;;;;;;12.05;8.00;;;16.40;99.90;;;;;;10464309;28;20051;-60
2024/02/26 07:12:16;;;;;;;15.10;6.43;;;16.20;99.90;;;;;;10459313;28;20082;-60
2024/02/26 07:17:20;;;;;;;;;;;16.50;99.90;;;;;;10465000;28;20247;-62
2024/02/26 07:22:21;;;;;;;;;;;16.20;99.90;;;;;;10468737;28;19943;-62
2024/02/26 07:27:24;;;;;;;8.98;4.30;;;16.30;99.90;;;;;;10468135;28;20315;-60
2024/02/26 07:32:27;;;;;;;14.35;5.88;;;16.40;99.90;;;;;;10471399;28;20095;-60
2024/02/26 07:37:29;;;;;;;6.47;4.70;;;16.30;99.90;;;;;;10464224;28;20151;-62
2024/02/26 07:42:31;;;;;;;8.23;5.77;;;16.70;99.90;;;;;;10472387;28;20052;-60
2024/02/26 07:47:35;;;;;;;7.78;5.72;;;16.20;99.90;;;;;;10470479;28;20496;-61
2024/02/26 07:52:37;;;;;;;9.05;5.88;;;16.20;99.90;;;;;;10468777;28;20131;-61
2024/02/26 07:57:43;;;;;;;5.70;4.32;;;16.40;99.90;;;;;;10463184;28;20498;-61
2024/02/26 08:02:47;;;;;;;6.32;4.65;;;16.30;99.90;;;;;;10463778;28;20044;-61
2024/02/26 08:07:48;;;;;;;7.25;5.22;;;16.40;99.90;;;;;;10468245;28;20052;-62
2024/02/26 08:12:50;;;;;;;5.20;3.53;;;16.10;99.90;;;;;;10469943;28;20144;-62
2024/02/26 08:17:54;;;;;;;3.97;3.37;;;16.20;99.90;;;;;;10476229;28;20056;-62
2024/02/26 08:22:56;;;;;;;3.55;2.90;;;16.20;99.90;;;;;;10480791;28;20064;-61
2024/02/26 08:27:58;;;;;;;4.47;3.38;;;16.50;99.90;;;;;;10465061;28;20060;-61
2024/02/26 08:33:01;;;;;;;6.93;3.50;;;16.10;99.90;;;;;;10474665;28;20040;-58
2024/02/26 08:38:04;;;;;;;5.13;3.28;;;16.40;99.90;;;;;;10479545;28;20045;-58
2024/02/26 08:43:06;;;;;;;4.85;3.40;;;16.40;99.90;;;;;;10473830;28;20055;-60
2024/02/26 08:48:09;;;;;;;3.35;2.95;;;16.10;99.90;;;;;;10471125;28;20423;-61
2024/02/26 08:53:11;;;;;;;4.07;2.58;;;16.10;99.90;;;;;;10475733;28;20056;-60
2024/02/26 08:58:13;;;;;;;2.93;2.70;;;16.20;99.90;;;;;;10476529;28;20507;-60
2024/02/26 09:03:16;;;;;;;5.90;2.50;;;16.10;99.90;;;;;;10476904;28;20048;-62
2024/02/26 09:08:19;;;;;;;5.25;1.67;;;15.90;99.90;;;;;;10480832;28;21038;-62
2024/02/26 09:13:21;;;;;;;5.00;2.53;;;16.10;99.90;;;;;;10471898;28;20083;-60
2024/02/26 09:18:25;;;;;;;7.43;2.60;;;15.90;99.90;;;;;;10473734;28;20466;-62
2024/02/26 09:23:26;;;;;;;3.58;2.45;;;16.00;99.90;;;;;;10471483;28;20078;-61
2024/02/26 09:28:31;;;;;;;3.90;2.87;;;16.00;99.90;;;;;;10474440;28;20135;-62
2024/02/26 09:33:35;;;;;;;2.30;2.10;;;16.30;99.90;;;;;;10470212;28;20723;-60
2024/02/26 09:38:38;;;;;;;4.60;2.30;;;16.00;99.90;;;;;;10473162;28;20648;-59
2024/02/26 09:43:42;;;;;;;;;;;15.90;99.90;;;;;;10470373;28;20044;-60
2024/02/26 09:48:46;;;;;;;2.35;2.10;;;15.90;99.90;;;;;;10473041;28;20022;-61
2024/02/26 09:53:50;;;;;;;3.47;2.22;;;16.00;99.90;;;;;;10472196;28;20086;-60
2024/02/26 09:58:55;;;;;;;3.83;2.53;;;16.20;99.90;;;;;;10481977;28;20048;-60
2024/02/26 10:03:59;;;;;;;2.85;2.50;;;15.90;99.90;;;;;;10469319;28;20068;-61
2024/02/26 10:09:06;;;;;;;5.10;1.98;;;16.00;99.90;;;;;;10478337;28;20054;-62
2024/02/26 10:14:09;;;;;;;5.18;2.40;;;15.90;99.90;;;;;;10474134;28;20049;-61
2024/02/26 10:19:29;;;;;;;5.28;2.85;;;16.00;99.90;;;;;;10471622;28;20060;-61
2024/02/26 10:24:31;;;;;;;8.52;2.38;;;16.10;99.90;;;;;;10469854;28;20047;-60
2024/02/26 10:29:33;;;;;;;4.22;1.80;;;16.10;99.90;;;;;;10472759;28;20048;-60
2024/02/26 10:34:38;;;;;;;2.35;1.95;;;16.40;99.90;;;;;;10469096;28;20075;-60
2024/02/26 10:39:47;;;;;;;3.35;2.10;;;16.20;99.90;;;;;;10464971;28;20052;-61
2024/02/26 10:44:49;;;;;;;3.30;2.10;;;16.30;99.90;;;;;;10476849;28;20048;-60
2024/02/26 10:49:53;;;;;;;2.83;2.20;;;16.10;99.90;;;;;;10466029;28;20081;-60
2024/02/26 10:54:57;;;;;;;1.83;1.73;;;16.40;99.90;;;;;;10474565;28;22624;-60
2024/02/26 11:00:01;;;;;;;2.83;1.77;;;16.60;99.90;;;;;;10485066;28;20056;-60
2024/02/26 11:05:10;;;;;;;3.78;2.33;;;16.00;99.90;;;;;;10475429;28;20182;-60
2024/02/26 11:10:13;;;;;;;4.82;2.72;;;16.00;99.90;;;;;;10474001;28;20060;-60
2024/02/26 11:15:15;;;;;;;2.05;1.70;;;16.30;99.90;;;;;;10473456;28;20076;-60
2024/02/26 11:20:20;;;;;;;3.70;2.47;;;16.50;99.90;;;;;;10474085;28;20054;-60
2024/02/26 11:25:23;;;;;;;6.25;2.90;;;16.30;99.90;;;;;;10466207;28;20059;-61
2024/02/26 11:30:26;;;;;;;3.88;2.75;;;15.80;99.90;;;;;;10471095;28;20100;-59
2024/02/26 11:35:30;;;;;;;4.85;1.40;;;15.60;99.90;;;;;;10465751;28;20043;-60
2024/02/26 11:40:34;;;;;;;3.85;2.40;;;16.20;99.90;;;;;;10471020;28;20054;-60
2024/02/26 11:45:54;;;;;;;4.80;2.78;;;15.90;99.90;;;;;;10464380;28;20079;-61
2024/02/26 11:51:01;;;;;;;3.30;1.67;;;16.20;99.90;;;;;;10465901;28;20048;-61
2024/02/26 11:56:23;;;;;;;5.60;2.83;;;16.60;99.90;;;;;;10466757;28;20060;-62
2024/02/26 12:01:47;;;;;;;4.28;2.50;;;16.40;99.90;;;;;;10470155;28;20052;-61
2024/02/26 12:06:53;;;;;;;7.05;1.90;;;16.20;99.90;;;;;;10469112;28;20048;-60
2024/02/26 12:11:57;;;;;;;4.25;2.35;;;16.40;99.90;;;;;;10452215;28;20061;-60
2024/02/26 12:16:59;;;;;;;5.40;2.72;;;16.20;99.90;;;;;;10465056;28;21021;-61
2024/02/26 12:22:03;;;;;;;4.38;2.38;;;16.10;99.90;;;;;;10470999;28;20052;-60
2024/02/26 12:27:06;;;;;;;4.10;1.98;;;16.20;99.90;;;;;;10463856;28;20052;-60
2024/02/26 12:32:11;;;;;;;2.38;1.88;;;16.30;99.90;;;;;;10466978;28;20044;-60
2024/02/26 12:37:17;;;;;;;6.20;2.22;;;16.10;99.90;;;;;;10473438;28;20052;-60
2024/02/26 12:42:23;;;;;;;5.18;2.83;;;16.20;99.90;;;;;;10472695;28;20090;-60
2024/02/26 12:47:25;;;;;;;1.58;1.38;;;16.10;99.90;;;;;;10480775;28;20051;-59
2024/02/26 12:52:30;;;;;;;1.38;1.20;;;15.90;99.90;;;;;;10471634;28;20057;-61
2024/02/26 12:57:33;;;;;;;6.20;2.00;;;15.90;99.90;;;;;;10474785;28;20155;-60
2024/02/26 13:02:36;;;;;;;2.53;1.63;;;16.10;99.90;;;;;;10475171;28;20095;-61
2024/02/26 13:07:44;;;;;;;6.32;2.60;;;16.00;99.90;;;;;;10472037;28;20048;-61
2024/02/26 13:12:46;;;;;;;9.85;4.10;;;16.20;99.90;;;;;;10468171;28;20069;-63
2024/02/26 13:17:49;;;;;;;;;;;16.20;99.90;;;;;;10471596;28;20075;-61
2024/02/26 13:23:00;;;;;;;7.40;2.97;;;16.30;99.90;;;;;;10478274;28;19939;-61
2024/02/26 13:28:10;;;;;;;3.33;1.80;;;16.10;99.90;;;;;;10470685;28;20937;-61
2024/02/26 13:33:13;;;;;;;5.47;1.67;;;16.30;99.90;;;;;;10476375;28;20048;-60
2024/02/26 13:38:17;;;;;;;3.10;1.70;;;16.20;99.90;;;;;;10470969;28;20062;-60
2024/02/26 13:43:19;;;;;;;2.88;1.52;;;15.90;99.90;;;;;;10473350;28;20832;-60
2024/02/26 13:48:22;;;;;;;3.33;1.30;;;16.20;99.90;;;;;;10478086;28;20114;-59
2024/02/26 13:53:26;;;;;;;1.80;1.33;;;16.40;99.90;;;;;;10478831;28;20048;-60
2024/02/26 13:58:29;;;;;;;4.28;1.05;;;15.90;99.90;;;;;;10471759;28;20072;-59
2024/02/26 14:03:35;;;;;;;3.95;1.08;;;16.40;99.90;;;;;;10470966;28;20114;-60
2024/02/26 14:08:39;;;;;;;3.72;1.33;;;16.30;99.90;;;;;;10472854;28;20091;-60
2024/02/26 14:13:41;;;;;;;3.10;1.13;;;16.40;99.90;;;;;;10471356;28;20540;-61
2024/02/26 14:18:45;;;;;;;2.13;1.05;;;16.70;99.90;;;;;;10469944;28;20052;-61
2024/02/26 14:23:52;;;;;;;2.42;1.27;;;16.60;99.90;;;;;;10478768;28;20055;-61
2024/02/26 14:28:54;;;;;;;3.05;1.63;;;16.80;99.90;;;;;;10465166;28;20041;-62
2024/02/26 14:34:01;;;;;;;3.65;1.30;;;16.60;99.90;;;;;;10465238;28;20082;-61
2024/02/26 14:39:05;;;;;;;3.45;1.25;;;17.00;99.90;;;;;;10465226;28;20055;-60
2024/02/26 14:44:07;;;;;;;6.60;2.03;;;16.90;99.90;;;;;;10469521;28;20113;-60
2024/02/26 14:49:12;;;;;;;1.33;1.10;;;17.20;99.90;;;;;;10475957;28;20048;-62
2024/02/26 14:54:16;;;;;;;3.25;1.40;;;17.10;99.90;;;;;;10474242;28;20457;-61
2024/02/26 14:59:18;;;;;;;2.75;1.48;;;16.80;99.90;;;;;;10470659;28;20238;-61
2024/02/26 15:04:24;;;;;;;3.85;1.55;;;17.20;99.90;;;;;;10476114;28;20568;-61
2024/02/26 15:09:28;;;;;;;3.53;1.60;;;17.00;99.90;;;;;;10469698;28;20146;-61
2024/02/26 15:14:30;;;;;;;3.42;1.83;;;17.10;99.90;;;;;;10470440;28;20060;-61
2024/02/26 15:19:32;;;;;;;3.40;1.23;;;16.80;99.90;;;;;;10470360;28;20048;-60
2024/02/26 15:24:35;;;;;;;5.50;1.07;;;16.70;99.90;;;;;;10470075;28;20863;-61
2024/02/26 15:29:39;;;;;;;4.55;2.13;;;16.90;99.90;;;;;;10468691;28;20486;-61
2024/02/26 15:34:42;;;;;;;3.85;1.73;;;16.90;99.90;;;;;;10465493;28;20169;-61
2024/02/26 15:39:48;;;;;;;3.45;1.20;;;16.90;99.90;;;;;;10475736;28;20048;-60
2024/02/26 15:44:50;;;;;;;7.32;1.77;;;16.90;99.90;;;;;;10472218;28;20045;-59
2024/02/26 15:49:54;;;;;;;7.80;1.27;;;17.00;99.90;;;;;;10463234;28;20048;-62
2024/02/26 15:54:57;;;;;;;4.63;1.90;;;17.20;99.90;;;;;;10463894;28;20094;-61
2024/02/26 16:00:01;;;;;;;5.25;1.30;;;16.90;99.90;;;;;;10470300;28;20216;-61
2024/02/26 16:05:03;;;;;;;2.58;1.42;;;16.80;99.90;;;;;;10472978;28;20053;-62
2024/02/26 16:10:09;;;;;;;3.42;1.27;;;16.80;99.90;;;;;;10466640;28;20056;-60
2024/02/26 16:15:14;;;;;;;1.88;1.38;;;16.80;99.90;;;;;;10466196;28;20535;-63
2024/02/26 16:20:19;;;;;;;4.35;1.70;;;17.00;99.90;;;;;;10467237;28;20051;-61
2024/02/26 16:25:23;;;;;;;5.32;2.03;;;17.00;99.90;;;;;;10469402;28;20055;-62
2024/02/26 16:30:25;;;;;;;1.13;0.95;;;16.70;99.90;;;;;;10473721;28;20124;-60
2024/02/26 16:35:27;;;;;;;7.97;1.90;;;16.40;99.90;;;;;;10463511;28;20169;-61
2024/02/26 16:40:30;;;;;;;4.13;1.65;;;16.50;99.90;;;;;;10475457;28;20474;-61
2024/02/26 16:45:32;;;;;;;3.28;1.50;;;16.80;99.90;;;;;;10467940;28;20041;-60
2024/02/26 16:50:34;;;;;;;3.60;1.63;;;16.40;99.90;;;;;;10465178;28;20052;-60
2024/02/26 16:55:38;;;;;;;2.30;1.08;;;16.60;99.90;;;;;;10466251;28;20081;-61
2024/02/26 17:00:40;;;;;;;3.15;1.83;;;16.70;99.90;;;;;;10473586;28;20481;-61
2024/02/26 17:05:44;;;;;;;2.17;1.00;;;16.80;99.90;;;;;;10465719;28;20079;-61
2024/02/26 17:10:48;;;;;;;4.72;1.35;;;16.80;99.90;;;;;;10468650;28;20482;-61
2024/02/26 17:15:50;;;;;;;3.35;1.40;;;16.80;99.90;;;;;;10461752;28;20094;-60
2024/02/26 17:20:55;;;;;;;3.95;1.98;;;17.00;99.90;;;;;;10475230;28;20234;-61
2024/02/26 17:25:59;;;;;;;6.57;2.50;;;15.80;99.90;;;;;;10472461;28;20154;-60
2024/02/26 17:31:01;;;;;;;2.35;1.17;;;16.00;99.90;;;;;;10478405;28;20055;-61
2024/02/26 17:36:04;;;;;;;7.43;2.33;;;16.30;99.90;;;;;;10465581;28;20055;-62
2024/02/26 17:41:10;;;;;;;7.15;2.10;;;16.60;99.90;;;;;;10469850;28;20068;-62
2024/02/26 17:46:12;;;;;;;2.67;1.20;;;16.40;99.90;;;;;;10466002;28;20163;-63
2024/02/26 17:51:14;;;;;;;5.30;1.47;;;16.50;99.90;;;;;;10476456;28;20052;-62
2024/02/26 17:56:17;;;;;;;5.18;1.70;;;16.30;99.90;;;;;;10474662;28;20113;-61
2024/02/26 18:01:20;;;;;;;6.03;1.20;;;16.10;99.90;;;;;;10465399;28;20083;-60
2024/02/26 18:06:22;;;;;;;2.33;1.10;;;16.10;99.90;;;;;;10470976;28;20048;-62
2024/02/26 18:11:25;;;;;;;5.75;1.20;;;16.30;99.90;;;;;;10457529;28;20060;-61
2024/02/26 18:16:29;;;;;;;6.78;1.20;;;16.50;99.90;;;;;;10466839;28;20061;-60
2024/02/26 18:21:31;;;;;;;4.68;1.00;;;16.40;99.90;;;;;;10472742;28;20198;-61
2024/02/26 18:26:35;;;;;;;6.50;0.98;;;16.30;99.90;;;;;;10470294;28;20117;-61
2024/02/26 18:31:37;;;;;;;7.72;1.20;;;16.10;99.90;;;;;;10465642;28;20461;-61
2024/02/26 18:36:43;;;;;;;5.60;1.50;;;16.20;99.90;;;;;;10467990;28;20139;-61
2024/02/26 18:41:46;;;;;;;5.53;1.10;;;15.40;99.90;;;;;;10474020;28;20864;-60
2024/02/26 18:46:50;;;;;;;5.85;1.33;;;14.70;99.90;;;;;;10458673;28;20546;-62
2024/02/26 18:51:52;;;;;;;7.90;2.75;;;14.50;99.90;;;;;;10469608;28;20130;-60
2024/02/26 18:56:55;;;;;;;7.60;1.90;;;13.80;99.90;;;;;;10462563;28;20056;-61
2024/02/26 19:01:57;;;;;;;3.92;1.25;;;14.20;99.90;;;;;;10458710;28;20049;-61
2024/02/26 19:07:00;;;;;;;2.83;1.03;;;14.30;99.90;;;;;;10467671;28;20056;-58
2024/02/26 19:12:03;;;;;;;4.53;1.50;;;13.70;99.90;;;;;;10468305;28;20090;-59
2024/02/26 19:17:07;;;;;;;3.90;1.45;;;13.80;99.90;;;;;;10463089;28;20597;-61
2024/02/26 19:22:10;;;;;;;5.13;1.27;;;13.30;99.90;;;;;;10461818;28;20184;-62
2024/02/26 19:27:15;;;;;;;4.50;1.67;;;13.00;99.90;;;;;;10460539;28;20887;-59
2024/02/26 19:32:17;;;;;;;5.32;1.95;;;13.60;99.90;;;;;;10466346;28;20503;-60
2024/02/26 19:37:19;;;;;;;2.15;1.60;;;13.40;99.90;;;;;;10467723;28;20169;-62
2024/02/26 19:42:22;;;;;;;3.17;1.20;;;13.10;99.90;;;;;;10464101;28;20048;-61
2024/02/26 19:47:25;;;;;;;1.58;1.05;;;13.60;99.90;;;;;;10463106;28;20131;-60
2024/02/26 19:52:27;;;;;;;7.63;1.27;;;14.10;99.90;;;;;;10464163;28;20499;-62
2024/02/26 19:57:30;;;;;;;4.03;1.53;;;13.80;99.90;;;;;;10466912;28;20048;-59
2024/02/26 20:02:34;;;;;;;3.17;1.17;;;13.60;99.90;;;;;;10457780;28;20470;-58
2024/02/26 20:07:36;;;;;;;1.58;0.93;;;13.40;99.90;;;;;;10467199;28;20513;-60
2024/02/26 20:12:40;;;;;;;5.00;1.37;;;13.70;99.90;;;;;;10457665;28;20416;-60
2024/02/26 20:17:42;;;;;;;5.47;1.20;;;13.80;99.90;;;;;;10460190;28;20052;-60
2024/02/26 20:22:44;;;;;;;3.10;1.33;;;13.30;99.90;;;;;;10464400;28;20063;-62
2024/02/26 20:27:48;;;;;;;3.80;0.80;;;13.70;99.90;;;;;;10459703;28;20873;-60
2024/02/26 20:32:50;;;;;;;2.40;1.20;;;13.70;99.90;;;;;;10464279;28;20565;-59
2024/02/26 20:37:52;;;;;;;5.27;1.47;;;13.60;99.90;;;;;;10465660;28;20060;-61
2024/02/26 20:42:56;;;;;;;1.90;0.93;;;13.70;99.90;;;;;;10465293;28;20059;-61
2024/02/26 20:47:58;;;;;;;1.90;1.00;;;13.80;99.90;;;;;;10465457;28;20587;-61
2024/02/26 20:53:00;;;;;;;8.73;1.33;;;15.20;99.90;;;;;;10465648;28;20086;-61
2024/02/26 20:58:04;;;;;;;5.78;1.30;;;15.30;99.90;;;;;;10482417;28;20818;-62
2024/02/26 21:03:08;;;;;;;6.63;0.90;;;15.20;99.90;;;;;;10467537;28;21424;-61
2024/02/26 21:08:11;;;;;;;4.30;1.05;;;15.50;99.90;;;;;;10467454;28;20052;-61
2024/02/26 21:13:14;;;;;;;;;;;15.60;99.90;;;;;;10463618;28;20092;-61
2024/02/26 21:18:16;;;;;;;;;;;15.60;99.90;;;;;;10466735;28;20006;-60
2024/02/26 21:23:18;;;;;;;2.08;0.80;;;15.70;99.90;;;;;;10474860;28;20367;-61
2024/02/26 21:28:21;;;;;;;4.50;1.20;;;15.80;99.90;;;;;;10479460;28;20503;-62
2024/02/26 21:33:23;;;;;;;2.80;0.90;;;15.70;99.90;;;;;;10471315;28;20181;-60
2024/02/26 21:38:25;;;;;;;8.43;1.57;;;15.30;99.90;;;;;;10472086;28;20609;-60
2024/02/26 21:43:30;;;;;;;3.22;1.30;;;15.20;99.90;;;;;;10474373;28;20060;-61
2024/02/26 21:48:32;;;;;;;5.32;0.98;;;14.90;99.90;;;;;;10481358;28;20124;-61
2024/02/26 21:53:34;;;;;;;2.97;1.58;;;15.00;99.90;;;;;;10480437;28;20052;-62
2024/02/26 21:58:38;;;;;;;3.63;0.80;;;14.80;99.90;;;;;;10482336;28;20135;-60
2024/02/26 22:03:42;;;;;;;7.40;1.10;;;15.10;99.90;;;;;;10488272;28;20052;-61
2024/02/26 22:08:44;;;;;;;2.67;1.10;;;14.80;99.90;;;;;;10486150;28;20048;-61
2024/02/26 22:13:48;;;;;;;5.33;1.37;;;14.90;99.90;;;;;;10471617;28;20420;-60
2024/02/26 22:18:50;;;;;;;3.47;1.02;;;15.00;99.90;;;;;;10473730;28;20470;-62
2024/02/26 22:23:52;;;;;;;4.00;1.57;;;14.80;99.90;;;;;;10472607;28;20518;-61
2024/02/26 22:28:56;;;;;;;3.67;1.67;;;14.70;99.90;;;;;;10480602;28;20118;-60
2024/02/26 22:33:58;;;;;;;2.67;1.10;;;15.00;99.90;;;;;;10477031;28;20040;-61
2024/02/26 22:39:00;;;;;;;4.53;0.90;;;15.00;99.90;;;;;;10477899;28;20048;-63
2024/02/26 22:44:03;;;;;;;3.30;1.23;;;14.80;99.90;;;;;;10473831;28;20471;-63
2024/02/26 22:49:05;;;;;;;2.63;1.23;;;14.90;99.90;;;;;;10478094;28;20044;-62
2024/02/26 22:54:07;;;;;;;4.60;1.10;;;14.60;99.90;;;;;;10463349;28;20048;-60
2024/02/26 22:59:11;;;;;;;1.30;0.93;;;14.80;99.90;;;;;;10463601;28;20140;-61
2024/02/26 23:04:14;;;;;;;2.97;1.10;;;14.50;99.90;;;;;;10475473;28;20518;-60
2024/02/26 23:09:17;;;;;;;3.83;1.00;;;14.60;99.90;;;;;;10468710;28;20106;-60
2024/02/26 23:14:20;;;;;;;;;;;14.70;99.90;;;;;;10478091;28;20060;-62
2024/02/26 23:19:22;;;;;;;3.22;1.33;;;14.60;99.90;;;;;;10484367;28;20063;-62
2024/02/26 23:24:23;;;;;;;1.90;1.07;;;14.40;99.90;;;;;;10481200;28;20628;-61
2024/02/26 23:29:27;;;;;;;5.47;1.40;;;14.70;99.90;;;;;;10485328;28;20052;-61
2024/02/26 23:34:29;;;;;;;3.72;1.50;;;14.30;99.90;;;;;;10477514;28;20047;-61
2024/02/26 23:39:32;;;;;;;2.83;0.90;;;14.20;99.90;;;;;;10488538;28;20044;-60
2024/02/26 23:44:36;;;;;;;3.17;1.50;;;14.50;99.90;;;;;;10480238;28;20467;-60
2024/02/26 23:49:38;;;;;;;3.67;1.30;;;14.30;99.90;;;;;;10468264;28;20917;-61
2024/02/26 23:54:40;;;;;;;2.90;1.45;;;14.20;99.90;;;;;;10478591;28;20507;-61
2024/02/26 23:59:43;;;;;;;5.83;1.57;;;14.20;99.90;;;;;;10475524;28;20516;-60
